sensor_id;sensor_type;location;lat;lon;timestamp;pressure;altitude;pressure_sealevel;temperature;humidity
39243;BME280;29823;47.404;8.566;2023-05-24T00:01:34;60175.97;;;-138.75;100.00
39243;BME280;29823;47.404;8.566;2023-05-24T00:04:03;60175.97;;;-138.75;100.00
39243;BME280;29823;47.404;8.566;2023-05-24T00:06:31;60175.97;;;-138.75;100.00
39243;BME280;29823;47.404;8.566;2023-05-24T00:09:00;60175.97;;;-138.75;100.00
39243;BME280;29823;47.404;8.566;2023-05-24T00:11:28;60175.97;;;-138.75;100.00
39243;BME280;29823;47.404;8.566;2023-05-24T00:13:57;60175.97;;;-138.75;100.00
39243;BME280;29823;47.404;8.566;2023-05-24T00:16:25;60175.97;;;-138.75;100.00
39243;BME280;29823;47.404;8.566;2023-05-24T00:18:53;60175.97;;;-138.75;100.00
39243;BME280;29823;47.404;8.566;2023-05-24T00:21:21;60175.97;;;-138.75;100.00
39243;BME280;29823;47.404;8.566;2023-05-24T00:23:49;60175.97;;;-138.75;100.00
39243;BME280;29823;47.404;8.566;2023-05-24T00:26:17;60175.97;;;-138.75;100.00
39243;BME280;29823;47.404;8.566;2023-05-24T00:28:45;60175.97;;;-138.75;100.00
39243;BME280;29823;47.404;8.566;2023-05-24T00:31:15;60175.97;;;-138.75;100.00
39243;BME280;29823;47.404;8.566;2023-05-24T00:33:43;60175.97;;;-138.75;100.00
39243;BME280;29823;47.404;8.566;2023-05-24T00:36:11;60175.97;;;-138.75;100.00
39243;BME280;29823;47.404;8.566;2023-05-24T00:38:38;60175.97;;;-138.75;100.00
39243;BME280;29823;47.404;8.566;2023-05-24T00:41:06;60175.97;;;-138.75;100.00
39243;BME280;29823;47.404;8.566;2023-05-24T00:43:34;60175.97;;;-138.75;100.00
39243;BME280;29823;47.404;8.566;2023-05-24T00:46:15;60175.97;;;-138.75;100.00
39243;BME280;29823;47.404;8.566;2023-05-24T00:48:44;60175.97;;;-138.75;100.00
39243;BME280;29823;47.404;8.566;2023-05-24T00:51:12;60175.97;;;-138.75;100.00
39243;BME280;29823;47.404;8.566;2023-05-24T00:53:44;60175.97;;;-138.75;100.00
39243;BME280;29823;47.404;8.566;2023-05-24T00:56:13;60175.97;;;-138.75;100.00
39243;BME280;29823;47.404;8.566;2023-05-24T00:58:42;60175.97;;;-138.75;100.00
39243;BME280;29823;47.404;8.566;2023-05-24T01:01:11;60175.97;;;-138.75;100.00
39243;BME280;29823;47.404;8.566;2023-05-24T01:03:41;60175.97;;;-138.75;100.00
39243;BME280;29823;47.404;8.566;2023-05-24T01:06:12;60175.97;;;-138.75;100.00
39243;BME280;29823;47.404;8.566;2023-05-24T01:08:47;60175.97;;;-138.75;100.00
39243;BME280;29823;47.404;8.566;2023-05-24T01:11:29;60175.97;;;-138.75;100.00
39243;BME280;29823;47.404;8.566;2023-05-24T01:14:09;60175.97;;;-138.75;100.00
39243;BME280;29823;47.404;8.566;2023-05-24T01:16:44;60175.97;;;-138.75;100.00
39243;BME280;29823;47.404;8.566;2023-05-24T01:19:45;60175.97;;;-138.75;100.00
39243;BME280;29823;47.404;8.566;2023-05-24T01:22:45;60175.97;;;-138.75;100.00
39243;BME280;29823;47.404;8.566;2023-05-24T01:25:24;60175.97;;;-138.75;100.00
39243;BME280;29823;47.404;8.566;2023-05-24T01:27:57;60175.97;;;-138.75;100.00
39243;BME280;29823;47.404;8.566;2023-05-24T01:30:26;60175.97;;;-138.75;100.00
39243;BME280;29823;47.404;8.566;2023-05-24T01:32:55;60175.97;;;-138.75;100.00
39243;BME280;29823;47.404;8.566;2023-05-24T01:35:23;60175.97;;;-138.75;100.00
39243;BME280;29823;47.404;8.566;2023-05-24T01:37:51;60175.97;;;-138.75;100.00
39243;BME280;29823;47.404;8.566;2023-05-24T01:40:19;60175.97;;;-138.75;100.00
39243;BME280;29823;47.404;8.566;2023-05-24T01:42:52;60175.97;;;-138.75;100.00
39243;BME280;29823;47.404;8.566;2023-05-24T01:45:32;60175.97;;;-138.75;100.00
39243;BME280;29823;47.404;8.566;2023-05-24T01:48:04;60175.97;;;-138.75;100.00
39243;BME280;29823;47.404;8.566;2023-05-24T01:50:40;60175.97;;;-138.75;100.00
39243;BME280;29823;47.404;8.566;2023-05-24T01:53:13;60175.97;;;-138.75;100.00
39243;BME280;29823;47.404;8.566;2023-05-24T01:55:43;60175.97;;;-138.75;100.00
39243;BME280;29823;47.404;8.566;2023-05-24T01:58:15;60175.97;;;-138.75;100.00
39243;BME280;29823;47.404;8.566;2023-05-24T02:00:45;60175.97;;;-138.75;100.00
39243;BME280;29823;47.404;8.566;2023-05-24T02:03:14;60175.97;;;-138.75;100.00
39243;BME280;29823;47.404;8.566;2023-05-24T02:05:44;60175.97;;;-138.75;100.00
39243;BME280;29823;47.404;8.566;2023-05-24T02:08:12;60175.97;;;-138.75;100.00
39243;BME280;29823;47.404;8.566;2023-05-24T02:10:40;60175.97;;;-138.75;100.00
39243;BME280;29823;47.404;8.566;2023-05-24T02:13:08;60175.97;;;-138.75;100.00
39243;BME280;29823;47.404;8.566;2023-05-24T02:15:36;60175.97;;;-138.75;100.00
39243;BME280;29823;47.404;8.566;2023-05-24T02:18:05;60175.97;;;-138.75;100.00
39243;BME280;29823;47.404;8.566;2023-05-24T02:20:34;60175.97;;;-138.75;100.00
39243;BME280;29823;47.404;8.566;2023-05-24T02:23:03;60175.97;;;-138.75;100.00
39243;BME280;29823;47.404;8.566;2023-05-24T02:25:31;60175.97;;;-138.75;100.00
39243;BME280;29823;47.404;8.566;2023-05-24T02:27:59;60175.97;;;-138.75;100.00
39243;BME280;29823;47.404;8.566;2023-05-24T02:30:27;60175.97;;;-138.75;100.00
39243;BME280;29823;47.404;8.566;2023-05-24T02:32:55;60175.97;;;-138.75;100.00
39243;BME280;29823;47.404;8.566;2023-05-24T02:35:25;60175.97;;;-138.75;100.00
39243;BME280;29823;47.404;8.566;2023-05-24T02:37:53;60175.97;;;-138.75;100.00
39243;BME280;29823;47.404;8.566;2023-05-24T02:40:24;60175.97;;;-138.75;100.00
39243;BME280;29823;47.404;8.566;2023-05-24T02:42:51;60175.97;;;-138.75;100.00
39243;BME280;29823;47.404;8.566;2023-05-24T02:45:19;60175.97;;;-138.75;100.00
39243;BME280;29823;47.404;8.566;2023-05-24T02:47:47;60175.97;;;-138.75;100.00
39243;BME280;29823;47.404;8.566;2023-05-24T02:50:15;60175.97;;;-138.75;100.00
39243;BME280;29823;47.404;8.566;2023-05-24T02:52:44;60175.97;;;-138.75;100.00
39243;BME280;29823;47.404;8.566;2023-05-24T02:55:12;60175.97;;;-138.75;100.00
39243;BME280;29823;47.404;8.566;2023-05-24T02:57:40;60175.97;;;-138.75;100.00
39243;BME280;29823;47.404;8.566;2023-05-24T03:00:09;60175.97;;;-138.75;100.00
39243;BME280;29823;47.404;8.566;2023-05-24T03:02:37;60175.97;;;-138.75;100.00
39243;BME280;29823;47.404;8.566;2023-05-24T03:05:07;60175.97;;;-138.75;100.00
39243;BME280;29823;47.404;8.566;2023-05-24T03:07:35;60175.97;;;-138.75;100.00
39243;BME280;29823;47.404;8.566;2023-05-24T03:10:05;60175.97;;;-138.75;100.00
39243;BME280;29823;47.404;8.566;2023-05-24T03:12:33;60175.97;;;-138.75;100.00
39243;BME280;29823;47.404;8.566;2023-05-24T03:15:01;60175.97;;;-138.75;100.00
39243;BME280;29823;47.404;8.566;2023-05-24T03:17:29;60175.97;;;-138.75;100.00
39243;BME280;29823;47.404;8.566;2023-05-24T03:19:57;60175.97;;;-138.75;100.00
39243;BME280;29823;47.404;8.566;2023-05-24T03:22:25;60175.97;;;-138.75;100.00
39243;BME280;29823;47.404;8.566;2023-05-24T03:24:52;60175.97;;;-138.75;100.00
39243;BME280;29823;47.404;8.566;2023-05-24T03:27:23;60175.97;;;-138.75;100.00
39243;BME280;29823;47.404;8.566;2023-05-24T03:29:50;60175.97;;;-138.75;100.00
39243;BME280;29823;47.404;8.566;2023-05-24T03:32:18;60175.97;;;-138.75;100.00
39243;BME280;29823;47.404;8.566;2023-05-24T03:34:46;60175.97;;;-138.75;100.00
39243;BME280;29823;47.404;8.566;2023-05-24T03:37:14;60175.97;;;-138.75;100.00
39243;BME280;29823;47.404;8.566;2023-05-24T03:39:42;60175.97;;;-138.75;100.00
39243;BME280;29823;47.404;8.566;2023-05-24T03:42:10;60175.97;;;-138.75;100.00
39243;BME280;29823;47.404;8.566;2023-05-24T03:44:39;60175.97;;;-138.75;100.00
39243;BME280;29823;47.404;8.566;2023-05-24T03:47:07;60175.97;;;-138.75;100.00
39243;BME280;29823;47.404;8.566;2023-05-24T03:49:35;60175.97;;;-138.75;100.00
39243;BME280;29823;47.404;8.566;2023-05-24T03:52:03;60175.97;;;-138.75;100.00
39243;BME280;29823;47.404;8.566;2023-05-24T03:54:31;60175.97;;;-138.75;100.00
39243;BME280;29823;47.404;8.566;2023-05-24T03:56:59;60175.97;;;-138.75;100.00
39243;BME280;29823;47.404;8.566;2023-05-24T03:59:27;60175.97;;;-138.75;100.00
39243;BME280;29823;47.404;8.566;2023-05-24T04:01:57;60175.97;;;-138.75;100.00
39243;BME280;29823;47.404;8.566;2023-05-24T04:04:25;60175.97;;;-138.75;100.00
39243;BME280;29823;47.404;8.566;2023-05-24T04:06:53;60175.97;;;-138.75;100.00
39243;BME280;29823;47.404;8.566;2023-05-24T04:09:21;60175.97;;;-138.75;100.00
39243;BME280;29823;47.404;8.566;2023-05-24T04:11:49;60175.97;;;-138.75;100.00
39243;BME280;29823;47.404;8.566;2023-05-24T04:14:17;60175.97;;;-138.75;100.00
39243;BME280;29823;47.404;8.566;2023-05-24T04:16:45;60175.97;;;-138.75;100.00
39243;BME280;29823;47.404;8.566;2023-05-24T04:19:15;60175.97;;;-138.75;100.00
39243;BME280;29823;47.404;8.566;2023-05-24T04:21:43;60175.97;;;-138.75;100.00
39243;BME280;29823;47.404;8.566;2023-05-24T04:24:11;60175.97;;;-138.75;100.00
39243;BME280;29823;47.404;8.566;2023-05-24T04:26:39;60175.97;;;-138.75;100.00
39243;BME280;29823;47.404;8.566;2023-05-24T04:29:07;60175.97;;;-138.75;100.00
39243;BME280;29823;47.404;8.566;2023-05-24T04:31:35;60175.97;;;-138.75;100.00
39243;BME280;29823;47.404;8.566;2023-05-24T04:34:03;60175.97;;;-138.75;100.00
39243;BME280;29823;47.404;8.566;2023-05-24T04:36:34;60175.97;;;-138.75;100.00
39243;BME280;29823;47.404;8.566;2023-05-24T04:39:03;60175.97;;;-138.75;100.00
39243;BME280;29823;47.404;8.566;2023-05-24T04:41:31;60175.97;;;-138.75;100.00
39243;BME280;29823;47.404;8.566;2023-05-24T04:44:00;60175.97;;;-138.75;100.00
39243;BME280;29823;47.404;8.566;2023-05-24T04:46:28;60175.97;;;-138.75;100.00
39243;BME280;29823;47.404;8.566;2023-05-24T04:48:56;60175.97;;;-138.75;100.00
39243;BME280;29823;47.404;8.566;2023-05-24T04:51:24;60175.97;;;-138.75;100.00
39243;BME280;29823;47.404;8.566;2023-05-24T04:53:54;60175.97;;;-138.75;100.00
39243;BME280;29823;47.404;8.566;2023-05-24T04:56:21;60175.97;;;-138.75;100.00
39243;BME280;29823;47.404;8.566;2023-05-24T04:58:50;60175.97;;;-138.75;100.00
39243;BME280;29823;47.404;8.566;2023-05-24T05:01:18;60175.97;;;-138.75;100.00
39243;BME280;29823;47.404;8.566;2023-05-24T05:03:47;60175.97;;;-138.75;100.00
39243;BME280;29823;47.404;8.566;2023-05-24T05:06:15;60175.97;;;-138.75;100.00
39243;BME280;29823;47.404;8.566;2023-05-24T05:08:42;60175.97;;;-138.75;100.00
39243;BME280;29823;47.404;8.566;2023-05-24T05:11:12;60175.97;;;-138.75;100.00
39243;BME280;29823;47.404;8.566;2023-05-24T05:13:40;60175.97;;;-138.75;100.00
39243;BME280;29823;47.404;8.566;2023-05-24T05:16:08;60175.97;;;-138.75;100.00
39243;BME280;29823;47.404;8.566;2023-05-24T05:18:36;60175.97;;;-138.75;100.00
39243;BME280;29823;47.404;8.566;2023-05-24T05:21:04;60175.97;;;-138.75;100.00
39243;BME280;29823;47.404;8.566;2023-05-24T05:23:32;60175.97;;;-138.75;100.00
39243;BME280;29823;47.404;8.566;2023-05-24T05:26:00;60175.97;;;-138.75;100.00
39243;BME280;29823;47.404;8.566;2023-05-24T05:28:29;60175.97;;;-138.75;100.00
39243;BME280;29823;47.404;8.566;2023-05-24T05:30:57;60175.97;;;-138.75;100.00
39243;BME280;29823;47.404;8.566;2023-05-24T05:33:25;60175.97;;;-138.75;100.00
39243;BME280;29823;47.404;8.566;2023-05-24T05:35:53;60175.97;;;-138.75;100.00
39243;BME280;29823;47.404;8.566;2023-05-24T05:38:21;60175.97;;;-138.75;100.00
39243;BME280;29823;47.404;8.566;2023-05-24T05:40:48;60175.97;;;-138.75;100.00
39243;BME280;29823;47.404;8.566;2023-05-24T05:43:16;60175.97;;;-138.75;100.00
39243;BME280;29823;47.404;8.566;2023-05-24T05:45:46;60175.97;;;-138.75;100.00
39243;BME280;29823;47.404;8.566;2023-05-24T05:48:14;60175.97;;;-138.75;100.00
39243;BME280;29823;47.404;8.566;2023-05-24T05:50:42;60175.97;;;-138.75;100.00
39243;BME280;29823;47.404;8.566;2023-05-24T05:53:10;60175.97;;;-138.75;100.00
39243;BME280;29823;47.404;8.566;2023-05-24T05:55:38;60175.97;;;-138.75;100.00
39243;BME280;29823;47.404;8.566;2023-05-24T05:58:06;60175.97;;;-138.75;100.00
39243;BME280;29823;47.404;8.566;2023-05-24T06:00:34;60175.97;;;-138.75;100.00
39243;BME280;29823;47.404;8.566;2023-05-24T06:03:03;60175.97;;;-138.75;100.00
39243;BME280;29823;47.404;8.566;2023-05-24T06:05:32;60175.97;;;-138.75;100.00
39243;BME280;29823;47.404;8.566;2023-05-24T06:08:00;60175.97;;;-138.75;100.00
39243;BME280;29823;47.404;8.566;2023-05-24T06:10:27;60175.97;;;-138.75;100.00
39243;BME280;29823;47.404;8.566;2023-05-24T06:12:55;60175.97;;;-138.75;100.00
39243;BME280;29823;47.404;8.566;2023-05-24T06:15:23;60175.97;;;-138.75;100.00
39243;BME280;29823;47.404;8.566;2023-05-24T06:17:51;60175.97;;;-138.75;100.00
39243;BME280;29823;47.404;8.566;2023-05-24T06:20:22;60175.97;;;-138.75;100.00
39243;BME280;29823;47.404;8.566;2023-05-24T06:22:50;60175.97;;;-138.75;100.00
39243;BME280;29823;47.404;8.566;2023-05-24T06:25:17;60175.97;;;-138.75;100.00
39243;BME280;29823;47.404;8.566;2023-05-24T06:27:46;60175.97;;;-138.75;100.00
39243;BME280;29823;47.404;8.566;2023-05-24T06:30:15;60175.97;;;-138.75;100.00
39243;BME280;29823;47.404;8.566;2023-05-24T06:32:43;60175.97;;;-138.75;100.00
39243;BME280;29823;47.404;8.566;2023-05-24T06:36:12;96589.78;;;13.64;100.00
39243;BME280;29823;47.404;8.566;2023-05-24T06:38:40;96591.78;;;13.74;100.00
39243;BME280;29823;47.404;8.566;2023-05-24T06:41:08;96593.34;;;13.48;100.00
39243;BME280;29823;47.404;8.566;2023-05-24T06:43:36;96599.44;;;13.82;100.00
39243;BME280;29823;47.404;8.566;2023-05-24T06:46:05;96594.91;;;13.82;100.00
39243;BME280;29823;47.404;8.566;2023-05-24T06:48:34;96597.94;;;14.12;100.00
39243;BME280;29823;47.404;8.566;2023-05-24T06:51:02;96586.69;;;14.15;100.00
39243;BME280;29823;47.404;8.566;2023-05-24T06:53:31;96590.41;;;14.14;100.00
39243;BME280;29823;47.404;8.566;2023-05-24T06:55:59;96597.13;;;14.60;100.00
39243;BME280;29823;47.404;8.566;2023-05-24T06:58:27;96589.88;;;14.60;100.00
39243;BME280;29823;47.404;8.566;2023-05-24T07:00:54;96594.56;;;14.43;100.00
39243;BME280;29823;47.404;8.566;2023-05-24T07:03:23;96592.13;;;14.42;100.00
39243;BME280;29823;47.404;8.566;2023-05-24T07:05:51;96586.38;;;14.33;100.00
39243;BME280;29823;47.404;8.566;2023-05-24T07:08:18;96584.69;;;14.27;100.00
39243;BME280;29823;47.404;8.566;2023-05-24T07:10:48;96573.38;;;14.25;100.00
39243;BME280;29823;47.404;8.566;2023-05-24T07:13:16;96592.06;;;13.94;100.00
39243;BME280;29823;47.404;8.566;2023-05-24T07:15:44;96599.81;;;13.90;100.00
39243;BME280;29823;47.404;8.566;2023-05-24T07:18:13;96606.59;;;13.76;100.00
39243;BME280;29823;47.404;8.566;2023-05-24T07:20:41;96596.00;;;13.86;100.00
39243;BME280;29823;47.404;8.566;2023-05-24T07:23:09;96572.38;;;13.88;100.00
39243;BME280;29823;47.404;8.566;2023-05-24T07:25:37;96602.81;;;14.15;100.00
39243;BME280;29823;47.404;8.566;2023-05-24T07:28:07;96606.34;;;14.37;100.00
39243;BME280;29823;47.404;8.566;2023-05-24T07:30:35;96589.56;;;14.30;100.00
39243;BME280;29823;47.404;8.566;2023-05-24T07:33:04;96602.47;;;14.55;100.00
39243;BME280;29823;47.404;8.566;2023-05-24T07:35:32;96608.94;;;14.80;100.00
39243;BME280;29823;47.404;8.566;2023-05-24T07:38:00;96590.03;;;14.75;100.00
39243;BME280;29823;47.404;8.566;2023-05-24T07:40:28;96600.53;;;14.50;100.00
39243;BME280;29823;47.404;8.566;2023-05-24T07:42:56;96596.63;;;14.89;100.00
39243;BME280;29823;47.404;8.566;2023-05-24T07:45:25;96595.91;;;14.99;100.00
39243;BME280;29823;47.404;8.566;2023-05-24T07:47:53;96595.38;;;15.02;100.00
39243;BME280;29823;47.404;8.566;2023-05-24T07:50:23;96602.03;;;14.94;100.00
39243;BME280;29823;47.404;8.566;2023-05-24T07:52:52;96604.16;;;14.87;100.00
39243;BME280;29823;47.404;8.566;2023-05-24T07:55:20;96607.91;;;14.86;100.00
39243;BME280;29823;47.404;8.566;2023-05-24T07:57:48;96599.88;;;14.65;100.00
39243;BME280;29823;47.404;8.566;2023-05-24T08:00:17;96604.72;;;14.94;100.00
39243;BME280;29823;47.404;8.566;2023-05-24T08:02:47;96609.56;;;14.61;100.00
39243;BME280;29823;47.404;8.566;2023-05-24T08:05:15;96610.88;;;14.58;100.00
39243;BME280;29823;47.404;8.566;2023-05-24T08:07:43;96616.31;;;14.68;100.00
39243;BME280;29823;47.404;8.566;2023-05-24T08:10:12;96610.94;;;14.63;100.00
39243;BME280;29823;47.404;8.566;2023-05-24T08:12:40;96614.19;;;14.44;100.00
39243;BME280;29823;47.404;8.566;2023-05-24T08:15:09;96604.06;;;14.51;100.00
39243;BME280;29823;47.404;8.566;2023-05-24T08:17:37;96604.88;;;14.78;100.00
39243;BME280;29823;47.404;8.566;2023-05-24T08:20:08;96620.63;;;14.64;100.00
39243;BME280;29823;47.404;8.566;2023-05-24T08:22:39;96611.31;;;14.50;100.00
39243;BME280;29823;47.404;8.566;2023-05-24T08:25:08;96608.88;;;13.84;100.00
39243;BME280;29823;47.404;8.566;2023-05-24T08:27:37;96597.53;;;14.20;100.00
39243;BME280;29823;47.404;8.566;2023-05-24T08:30:06;96606.00;;;14.12;100.00
39243;BME280;29823;47.404;8.566;2023-05-24T08:32:34;96598.63;;;14.24;100.00
39243;BME280;29823;47.404;8.566;2023-05-24T08:35:02;96604.41;;;14.59;100.00
39243;BME280;29823;47.404;8.566;2023-05-24T08:37:48;96616.13;;;14.48;100.00
39243;BME280;29823;47.404;8.566;2023-05-24T08:40:17;96614.38;;;14.85;100.00
39243;BME280;29823;47.404;8.566;2023-05-24T08:42:45;96607.06;;;14.54;100.00
39243;BME280;29823;47.404;8.566;2023-05-24T08:45:14;96608.69;;;14.12;100.00
39243;BME280;29823;47.404;8.566;2023-05-24T08:47:42;96619.59;;;14.22;100.00
39243;BME280;29823;47.404;8.566;2023-05-24T08:50:11;96622.16;;;14.34;100.00
39243;BME280;29823;47.404;8.566;2023-05-24T08:52:40;96630.53;;;14.37;100.00
39243;BME280;29823;47.404;8.566;2023-05-24T08:55:10;96629.66;;;14.53;100.00
39243;BME280;29823;47.404;8.566;2023-05-24T08:57:38;96633.00;;;14.39;100.00
39243;BME280;29823;47.404;8.566;2023-05-24T09:00:08;96628.91;;;14.15;100.00
39243;BME280;29823;47.404;8.566;2023-05-24T09:02:38;96639.41;;;14.16;100.00
39243;BME280;29823;47.404;8.566;2023-05-24T09:05:09;96650.03;;;14.06;100.00
39243;BME280;29823;47.404;8.566;2023-05-24T09:07:43;96643.97;;;13.94;100.00
39243;BME280;29823;47.404;8.566;2023-05-24T09:10:19;96649.19;;;13.84;100.00
39243;BME280;29823;47.404;8.566;2023-05-24T09:12:50;96643.97;;;13.56;100.00
39243;BME280;29823;47.404;8.566;2023-05-24T09:15:21;96648.66;;;13.66;100.00
39243;BME280;29823;47.404;8.566;2023-05-24T09:17:48;96644.13;;;13.66;100.00
39243;BME280;29823;47.404;8.566;2023-05-24T09:20:17;96648.00;;;13.75;100.00
39243;BME280;29823;47.404;8.566;2023-05-24T09:22:49;96656.75;;;13.87;100.00
39243;BME280;29823;47.404;8.566;2023-05-24T09:25:19;96646.81;;;13.88;100.00
39243;BME280;29823;47.404;8.566;2023-05-24T09:27:49;96654.03;;;13.82;100.00
39243;BME280;29823;47.404;8.566;2023-05-24T09:30:18;96662.16;;;14.09;100.00
39243;BME280;29823;47.404;8.566;2023-05-24T09:32:54;96658.03;;;14.01;100.00
39243;BME280;29823;47.404;8.566;2023-05-24T09:35:23;96611.00;;;13.82;100.00
39243;BME280;29823;47.404;8.566;2023-05-24T09:37:53;96650.19;;;14.00;100.00
39243;BME280;29823;47.404;8.566;2023-05-24T09:40:24;96659.44;;;14.25;100.00
39243;BME280;29823;47.404;8.566;2023-05-24T09:43:03;96654.28;;;14.02;100.00
39243;BME280;29823;47.404;8.566;2023-05-24T09:45:31;96662.09;;;14.20;100.00
39243;BME280;29823;47.404;8.566;2023-05-24T09:48:02;96654.88;;;14.47;100.00
39243;BME280;29823;47.404;8.566;2023-05-24T09:50:30;96646.91;;;14.57;100.00
39243;BME280;29823;47.404;8.566;2023-05-24T09:53:01;96626.69;;;14.55;100.00
39243;BME280;29823;47.404;8.566;2023-05-24T09:55:34;96646.84;;;14.09;100.00
39243;BME280;29823;47.404;8.566;2023-05-24T09:58:03;96648.06;;;14.66;100.00
39243;BME280;29823;47.404;8.566;2023-05-24T10:00:35;96652.91;;;14.64;100.00
39243;BME280;29823;47.404;8.566;2023-05-24T10:03:06;96650.88;;;14.76;100.00
39243;BME280;29823;47.404;8.566;2023-05-24T10:05:35;96654.53;;;14.92;100.00
39243;BME280;29823;47.404;8.566;2023-05-24T10:08:03;96645.09;;;14.63;100.00
39243;BME280;29823;47.404;8.566;2023-05-24T10:10:32;96650.31;;;14.26;100.00
39243;BME280;29823;47.404;8.566;2023-05-24T10:13:01;96649.59;;;14.57;100.00
39243;BME280;29823;47.404;8.566;2023-05-24T10:15:29;96659.19;;;14.48;100.00
39243;BME280;29823;47.404;8.566;2023-05-24T10:17:57;96662.59;;;14.39;100.00
39243;BME280;29823;47.404;8.566;2023-05-24T10:20:26;96657.72;;;14.62;100.00
39243;BME280;29823;47.404;8.566;2023-05-24T10:22:58;96662.25;;;14.57;100.00
39243;BME280;29823;47.404;8.566;2023-05-24T10:25:27;96664.69;;;14.58;100.00
39243;BME280;29823;47.404;8.566;2023-05-24T10:28:01;96654.06;;;14.25;100.00
39243;BME280;29823;47.404;8.566;2023-05-24T10:30:34;96660.13;;;14.37;100.00
39243;BME280;29823;47.404;8.566;2023-05-24T10:33:05;96661.63;;;14.50;100.00
39243;BME280;29823;47.404;8.566;2023-05-24T10:35:35;96655.25;;;14.34;100.00
39243;BME280;29823;47.404;8.566;2023-05-24T10:38:04;96651.38;;;14.47;100.00
39243;BME280;29823;47.404;8.566;2023-05-24T10:40:33;96648.59;;;14.63;100.00
39243;BME280;29823;47.404;8.566;2023-05-24T10:43:04;96650.56;;;14.73;100.00
39243;BME280;29823;47.404;8.566;2023-05-24T10:45:35;96670.91;;;14.64;100.00
39243;BME280;29823;47.404;8.566;2023-05-24T10:48:32;96668.16;;;14.80;100.00
39243;BME280;29823;47.404;8.566;2023-05-24T10:51:30;96665.63;;;14.47;100.00
39243;BME280;29823;47.404;8.566;2023-05-24T10:54:21;96665.13;;;14.50;100.00
39243;BME280;29823;47.404;8.566;2023-05-24T10:56:52;96663.13;;;14.41;100.00
39243;BME280;29823;47.404;8.566;2023-05-24T10:59:38;96658.38;;;14.48;100.00
39243;BME280;29823;47.404;8.566;2023-05-24T11:02:09;96667.00;;;14.28;100.00
39243;BME280;29823;47.404;8.566;2023-05-24T11:04:40;96672.84;;;14.20;100.00
39243;BME280;29823;47.404;8.566;2023-05-24T11:07:10;96662.09;;;14.04;100.00
39243;BME280;29823;47.404;8.566;2023-05-24T11:09:41;96659.34;;;13.99;100.00
39243;BME280;29823;47.404;8.566;2023-05-24T11:12:14;96653.91;;;14.15;100.00
39243;BME280;29823;47.404;8.566;2023-05-24T11:14:48;96647.22;;;14.18;100.00
39243;BME280;29823;47.404;8.566;2023-05-24T11:17:20;96608.13;;;13.89;100.00
39243;BME280;29823;47.404;8.566;2023-05-24T11:19:54;96593.78;;;13.62;100.00
39243;BME280;29823;47.404;8.566;2023-05-24T11:22:24;96612.19;;;13.70;100.00
39243;BME280;29823;47.404;8.566;2023-05-24T11:24:52;96664.03;;;14.08;100.00
39243;BME280;29823;47.404;8.566;2023-05-24T11:27:20;96659.13;;;14.22;100.00
39243;BME280;29823;47.404;8.566;2023-05-24T11:29:50;96635.06;;;13.94;100.00
39243;BME280;29823;47.404;8.566;2023-05-24T11:32:19;96663.31;;;14.34;100.00
39243;BME280;29823;47.404;8.566;2023-05-24T11:34:49;96661.31;;;14.25;100.00
39243;BME280;29823;47.404;8.566;2023-05-24T11:37:17;96656.13;;;14.40;100.00
39243;BME280;29823;47.404;8.566;2023-05-24T11:40:01;96662.31;;;14.40;100.00
39243;BME280;29823;47.404;8.566;2023-05-24T11:42:32;96634.97;;;14.48;100.00
39243;BME280;29823;47.404;8.566;2023-05-24T11:45:02;96651.84;;;14.65;100.00
39243;BME280;29823;47.404;8.566;2023-05-24T11:47:34;96653.72;;;14.91;100.00
39243;BME280;29823;47.404;8.566;2023-05-24T11:50:02;96656.91;;;14.88;100.00
39243;BME280;29823;47.404;8.566;2023-05-24T11:52:31;96657.56;;;15.00;100.00
39243;BME280;29823;47.404;8.566;2023-05-24T11:54:58;96621.31;;;14.81;100.00
39243;BME280;29823;47.404;8.566;2023-05-24T11:57:29;96659.59;;;15.15;100.00
39243;BME280;29823;47.404;8.566;2023-05-24T12:00:05;96655.16;;;15.30;100.00
39243;BME280;29823;47.404;8.566;2023-05-24T12:02:37;96657.97;;;15.14;100.00
39243;BME280;29823;47.404;8.566;2023-05-24T12:05:06;96649.22;;;15.60;100.00
39243;BME280;29823;47.404;8.566;2023-05-24T12:07:35;96647.69;;;15.37;100.00
39243;BME280;29823;47.404;8.566;2023-05-24T12:10:03;96643.09;;;15.74;100.00
39243;BME280;29823;47.404;8.566;2023-05-24T12:12:32;96637.28;;;15.97;100.00
39243;BME280;29823;47.404;8.566;2023-05-24T12:15:12;96639.25;;;15.65;100.00
39243;BME280;29823;47.404;8.566;2023-05-24T12:17:46;96633.06;;;16.11;100.00
39243;BME280;29823;47.404;8.566;2023-05-24T12:20:16;96623.97;;;16.32;100.00
39243;BME280;29823;47.404;8.566;2023-05-24T12:22:48;96626.22;;;16.50;100.00
39243;BME280;29823;47.404;8.566;2023-05-24T12:25:17;96624.19;;;17.07;100.00
39243;BME280;29823;47.404;8.566;2023-05-24T12:27:47;96633.63;;;16.95;100.00
39243;BME280;29823;47.404;8.566;2023-05-24T12:30:23;96639.56;;;16.82;100.00
39243;BME280;29823;47.404;8.566;2023-05-24T12:32:51;96626.13;;;16.35;100.00
39243;BME280;29823;47.404;8.566;2023-05-24T12:35:20;96644.13;;;16.76;100.00
39243;BME280;29823;47.404;8.566;2023-05-24T12:37:49;96631.00;;;16.38;100.00
39243;BME280;29823;47.404;8.566;2023-05-24T12:40:18;96639.34;;;16.32;100.00
39243;BME280;29823;47.404;8.566;2023-05-24T12:42:49;96626.63;;;16.22;100.00
39243;BME280;29823;47.404;8.566;2023-05-24T12:45:18;96634.69;;;16.12;100.00
39243;BME280;29823;47.404;8.566;2023-05-24T12:47:51;96633.25;;;16.46;100.00
39243;BME280;29823;47.404;8.566;2023-05-24T12:50:19;96639.59;;;16.25;100.00
39243;BME280;29823;47.404;8.566;2023-05-24T12:52:48;96632.06;;;16.27;100.00
39243;BME280;29823;47.404;8.566;2023-05-24T12:55:18;96629.44;;;16.42;100.00